Ns Clipper — A8GW6 — position and weather

sailwx.info

Track history (hours):
 
Tides and Currents Weather Stations Pressure Air Temp Water Temp Dewpoint Dewpoint Depression Visibility Wind Speed Wind Dir Waves Ship Positions

Ns Clipper

Last reported at 2015-Feb-12 11:09 UTC. Time now 2015-Feb-27 22:40 UTC.
Position N 28°40' W 094°25'.
Warning: this ship's position is 15 days out of date.

Length 243 m; draft 8.7 m.

Type: Tanker. MMSI: 636012661.

Date/timePositionNaut miles runAvg speedWind from/ knotsBaromVisibWave heightAir tempDewpointWater temp
2015-Feb-12 11:09N 28°40' W 094°25'1413.5
2015-Feb-12 10:09N 28°54' W 094°25'812.9
2015-Feb-12 09:33N 29°01' W 094°25'1212.0
2015-Feb-12 08:33N 29°12' W 094°31'1211.7
2015-Feb-12 07:33N 29°20' W 094°41'1111.0
2015-Feb-12 06:33N 29°27' W 094°51'1111.5
2015-Feb-12 05:33N 29°37' W 094°57'8 8.1
2015-Feb-12 04:33N 29°44' W 095°03'4 2.1
2015-Feb-12 02:31N 29°44' W 095°08'0 0.0
2015-Feb-12 01:28N 29°44' W 095°08'0 0.0
2015-Feb-12 00:28N 29°44' W 095°08'0 0.0
2015-Feb-11 23:28N 29°44' W 095°08'0 0.0
2015-Feb-11 22:31N 29°44' W 095°08'0 0.0
2015-Feb-11 21:31N 29°44' W 095°08'0 0.0
2015-Feb-11 20:31N 29°44' W 095°08'0 0.0
2015-Feb-11 19:31N 29°44' W 095°08'0 0.0
2015-Feb-11 18:31N 29°44' W 095°08'0 0.0
2015-Feb-11 17:31N 29°44' W 095°08'0 0.0
2015-Feb-11 16:31N 29°44' W 095°08'0 0.0
2015-Feb-11 15:31N 29°44' W 095°08'0 0.0
2015-Feb-11 14:31N 29°44' W 095°08'0 0.0
2015-Feb-11 13:31N 29°44' W 095°08'0 0.0
2015-Feb-11 12:22N 29°44' W 095°08'0 0.0
2015-Feb-11 02:31N 29°44' W 095°08'0 0.0
2015-Feb-11 01:33N 29°44' W 095°08'0 0.0
2015-Feb-11 00:33N 29°44' W 095°08'0 0.0
2015-Feb-10 23:33N 29°44' W 095°08'0 0.0
2015-Feb-10 22:33N 29°44' W 095°08'0 0.0
2015-Feb-10 21:31N 29°44' W 095°08'0 0.0
2015-Feb-10 20:33N 29°44' W 095°08'0 0.0
2015-Feb-10 19:33N 29°44' W 095°08'0 0.0
2015-Feb-10 18:33N 29°44' W 095°08'0 0.0
2015-Feb-10 17:30N 29°44' W 095°08'0 0.0
2015-Feb-10 16:33N 29°44' W 095°08'0 0.0
2015-Feb-10 15:34N 29°44' W 095°08'0 0.0
2015-Feb-10 14:29N 29°44' W 095°08'0 0.0
2015-Feb-10 13:31N 29°44' W 095°08'0 0.0
2015-Feb-10 12:33N 29°44' W 095°08'0 0.0
2015-Feb-10 11:33N 29°44' W 095°08'0 0.0
2015-Feb-10 10:31N 29°44' W 095°08'0 0.0
2015-Feb-10 09:32N 29°44' W 095°08'0 0.0
2015-Feb-10 08:32N 29°44' W 095°08'0 0.0
2015-Feb-10 07:33N 29°44' W 095°08'0 0.0
2015-Feb-10 06:34N 29°44' W 095°08'0 0.0
2015-Feb-10 05:31N 29°44' W 095°08'0 0.0
2015-Feb-10 04:31N 29°44' W 095°08'0 0.0
2015-Feb-10 03:31N 29°44' W 095°08'0 0.0
2015-Feb-10 02:25N 29°44' W 095°08'0 0.0
2015-Feb-10 01:33N 29°44' W 095°08'0 0.0
2015-Feb-10 00:31N 29°44' W 095°08'0 0.0
2015-Feb-09 23:32N 29°44' W 095°08'0 0.0
2015-Feb-09 22:32N 29°44' W 095°08'0 0.0
2015-Feb-09 21:33N 29°44' W 095°08'0 0.0
2015-Feb-09 20:33N 29°44' W 095°08'0 0.0
2015-Feb-09 19:33N 29°44' W 095°08'0 0.0
2015-Feb-09 18:34N 29°44' W 095°08'0 0.0
2015-Feb-09 17:33N 29°44' W 095°08'0 0.0
2015-Feb-09 16:33N 29°44' W 095°08'0 0.0
2015-Feb-09 15:32N 29°44' W 095°08'0 0.0
2015-Feb-09 14:32N 29°44' W 095°08'2 0.2
2015-Feb-08 23:33N 29°45' W 095°05'5 5.4
2015-Feb-08 22:33N 29°42' W 095°01'8 7.7
2015-Feb-08 21:33N 29°35' W 094°56'9 8.8
2015-Feb-08 20:33N 29°28' W 094°51'8 8.3
2015-Feb-08 19:33N 29°21' W 094°46'  
Track history (hours):
 
Tides and Currents Weather Stations Pressure Air Temp Water Temp Dewpoint Dewpoint Depression Visibility Wind Speed Wind Dir Waves Ship Positions

Ns Clipper

Last reported at 2015-Feb-12 11:09 UTC. Time now 2015-Feb-27 22:40 UTC.
Position N 28°40' W 094°25'.
Warning: this ship's position is 15 days out of date.

Length 243 m; draft 8.7 m.

Type: Tanker. MMSI: 636012661.

Date/timePositionNaut miles runAvg speedWind from/ knotsBaromVisibWave heightAir tempDewpointWater temp
2015-Feb-12 11:09N 28°40' W 094°25'1413.5
2015-Feb-12 10:09N 28°54' W 094°25'812.9
2015-Feb-12 09:33N 29°01' W 094°25'1212.0
2015-Feb-12 08:33N 29°12' W 094°31'1211.7
2015-Feb-12 07:33N 29°20' W 094°41'1111.0
2015-Feb-12 06:33N 29°27' W 094°51'1111.5
2015-Feb-12 05:33N 29°37' W 094°57'8 8.1
2015-Feb-12 04:33N 29°44' W 095°03'4 2.1
2015-Feb-12 02:31N 29°44' W 095°08'0 0.0
2015-Feb-12 01:28N 29°44' W 095°08'0 0.0
2015-Feb-12 00:28N 29°44' W 095°08'0 0.0
2015-Feb-11 23:28N 29°44' W 095°08'0 0.0
2015-Feb-11 22:31N 29°44' W 095°08'0 0.0
2015-Feb-11 21:31N 29°44' W 095°08'0 0.0
2015-Feb-11 20:31N 29°44' W 095°08'0 0.0
2015-Feb-11 19:31N 29°44' W 095°08'0 0.0
2015-Feb-11 18:31N 29°44' W 095°08'0 0.0
2015-Feb-11 17:31N 29°44' W 095°08'0 0.0
2015-Feb-11 16:31N 29°44' W 095°08'0 0.0
2015-Feb-11 15:31N 29°44' W 095°08'0 0.0
2015-Feb-11 14:31N 29°44' W 095°08'0 0.0
2015-Feb-11 13:31N 29°44' W 095°08'0 0.0
2015-Feb-11 12:22N 29°44' W 095°08'0 0.0
2015-Feb-11 02:31N 29°44' W 095°08'0 0.0
2015-Feb-11 01:33N 29°44' W 095°08'0 0.0
2015-Feb-11 00:33N 29°44' W 095°08'0 0.0
2015-Feb-10 23:33N 29°44' W 095°08'0 0.0
2015-Feb-10 22:33N 29°44' W 095°08'0 0.0
2015-Feb-10 21:31N 29°44' W 095°08'0 0.0
2015-Feb-10 20:33N 29°44' W 095°08'0 0.0
2015-Feb-10 19:33N 29°44' W 095°08'0 0.0
2015-Feb-10 18:33N 29°44' W 095°08'0 0.0
2015-Feb-10 17:30N 29°44' W 095°08'0 0.0
2015-Feb-10 16:33N 29°44' W 095°08'0 0.0
2015-Feb-10 15:34N 29°44' W 095°08'0 0.0
2015-Feb-10 14:29N 29°44' W 095°08'0 0.0
2015-Feb-10 13:31N 29°44' W 095°08'0 0.0
2015-Feb-10 12:33N 29°44' W 095°08'0 0.0
2015-Feb-10 11:33N 29°44' W 095°08'0 0.0
2015-Feb-10 10:31N 29°44' W 095°08'0 0.0
2015-Feb-10 09:32N 29°44' W 095°08'0 0.0
2015-Feb-10 08:32N 29°44' W 095°08'0 0.0
2015-Feb-10 07:33N 29°44' W 095°08'0 0.0
2015-Feb-10 06:34N 29°44' W 095°08'0 0.0
2015-Feb-10 05:31N 29°44' W 095°08'0 0.0
2015-Feb-10 04:31N 29°44' W 095°08'0 0.0
2015-Feb-10 03:31N 29°44' W 095°08'0 0.0
2015-Feb-10 02:25N 29°44' W 095°08'0 0.0
2015-Feb-10 01:33N 29°44' W 095°08'0 0.0
2015-Feb-10 00:31N 29°44' W 095°08'0 0.0
2015-Feb-09 23:32N 29°44' W 095°08'0 0.0
2015-Feb-09 22:32N 29°44' W 095°08'0 0.0
2015-Feb-09 21:33N 29°44' W 095°08'0 0.0
2015-Feb-09 20:33N 29°44' W 095°08'0 0.0
2015-Feb-09 19:33N 29°44' W 095°08'0 0.0
2015-Feb-09 18:34N 29°44' W 095°08'0 0.0
2015-Feb-09 17:33N 29°44' W 095°08'0 0.0
2015-Feb-09 16:33N 29°44' W 095°08'0 0.0
2015-Feb-09 15:32N 29°44' W 095°08'0 0.0
2015-Feb-09 14:32N 29°44' W 095°08'2 0.2
2015-Feb-08 23:33N 29°45' W 095°05'5 5.4
2015-Feb-08 22:33N 29°42' W 095°01'8 7.7
2015-Feb-08 21:33N 29°35' W 094°56'9 8.8
2015-Feb-08 20:33N 29°28' W 094°51'8 8.3
2015-Feb-08 19:33N 29°21' W 094°46'  

Dump ship's entire track history